createdAt,value
2023-01-12T00:01:30.909Z,13.20
2023-01-12T00:03:57.442Z,14.07
2023-01-12T00:06:24.454Z,13.38
2023-01-12T00:08:52.432Z,11.95
2023-01-12T00:11:20.378Z,15.95
2023-01-12T00:13:47.100Z,17.00
2023-01-12T00:16:34.725Z,11.60
2023-01-12T00:19:03.629Z,11.27
2023-01-12T00:21:34.260Z,9.23
2023-01-12T00:24:00.734Z,12.38
2023-01-12T00:26:27.212Z,15.50
2023-01-12T00:28:54.034Z,9.65
2023-01-12T00:31:20.482Z,17.30
2023-01-12T00:33:47.301Z,11.85
2023-01-12T00:36:16.875Z,11.48
2023-01-12T00:38:43.433Z,10.63
2023-01-12T00:41:12.391Z,10.70
2023-01-12T00:43:57.244Z,12.85
2023-01-12T00:46:32.877Z,12.13
2023-01-12T00:48:59.324Z,14.93
2023-01-12T00:51:25.931Z,10.63
2023-01-12T00:53:52.376Z,8.48
2023-01-12T00:56:18.784Z,14.10
2023-01-12T00:58:45.298Z,14.52
2023-01-12T01:01:11.786Z,9.82
2023-01-12T01:03:38.304Z,11.02
2023-01-12T01:06:06.655Z,10.32
2023-01-12T01:08:36.555Z,13.07
2023-01-12T01:11:06.303Z,12.25
2023-01-12T01:13:33.219Z,14.23
2023-01-12T01:16:01.056Z,15.63
2023-01-12T01:18:28.842Z,11.13
2023-01-12T01:20:55.521Z,16.20
2023-01-12T01:23:23.894Z,10.88
2023-01-12T01:25:50.531Z,11.20
2023-01-12T01:28:17.761Z,14.77
2023-01-12T01:30:45.216Z,9.88
2023-01-12T01:33:12.743Z,13.80
2023-01-12T01:35:39.298Z,13.38
2023-01-12T01:38:06.099Z,15.70
2023-01-12T01:40:33.682Z,11.38
2023-01-12T01:43:00.163Z,14.27
2023-01-12T01:45:26.859Z,12.77
2023-01-12T01:48:01.850Z,12.52
2023-01-12T01:50:36.198Z,14.40
2023-01-12T01:53:06.324Z,13.63
2023-01-12T01:55:39.162Z,13.00
2023-01-12T01:58:14.322Z,10.73
2023-01-12T02:00:42.270Z,12.90
2023-01-12T02:03:11.390Z,15.30
2023-01-12T02:05:41.718Z,15.52
2023-01-12T02:08:28.646Z,18.05
2023-01-12T02:10:57.768Z,14.52
2023-01-12T02:13:47.350Z,16.70
2023-01-12T02:16:23.286Z,18.33
2023-01-12T02:18:58.133Z,12.93
2023-01-12T02:21:36.716Z,21.70
2023-01-12T02:24:27.162Z,17.02
2023-01-12T02:27:12.111Z,14.55
2023-01-12T02:30:09.658Z,17.85
2023-01-12T02:32:55.136Z,14.52
2023-01-12T02:35:28.297Z,15.27
2023-01-12T02:38:12.422Z,16.10
2023-01-12T02:40:52.287Z,15.88
2023-01-12T02:43:28.570Z,18.45
2023-01-12T02:46:13.272Z,17.88
2023-01-12T02:48:57.468Z,16.30
2023-01-12T02:51:37.445Z,14.95
2023-01-12T02:54:11.144Z,14.82
2023-01-12T02:56:44.396Z,16.35
2023-01-12T02:59:18.068Z,14.63
2023-01-12T03:01:48.842Z,17.40
2023-01-12T03:04:17.615Z,22.50
2023-01-12T03:06:57.978Z,17.05
2023-01-12T03:09:30.975Z,17.73
2023-01-12T03:12:04.086Z,17.63
2023-01-12T03:14:34.414Z,19.05
2023-01-12T03:17:05.574Z,19.33
2023-01-12T03:19:33.238Z,17.08
2023-01-12T03:22:07.549Z,17.83
2023-01-12T03:24:48.834Z,15.85
2023-01-12T03:27:28.013Z,17.55
2023-01-12T03:29:56.914Z,18.30
2023-01-12T03:32:24.118Z,14.38
2023-01-12T03:34:51.133Z,13.63
2023-01-12T03:37:23.424Z,14.77
2023-01-12T03:40:00.041Z,18.42
2023-01-12T03:42:32.979Z,14.23
2023-01-12T03:45:06.460Z,17.60
2023-01-12T03:47:34.980Z,14.13
2023-01-12T03:50:06.131Z,12.82
2023-01-12T03:52:35.902Z,20.48
2023-01-12T03:55:05.217Z,15.05
2023-01-12T03:57:32.351Z,19.13
2023-01-12T04:00:00.789Z,17.35
2023-01-12T04:02:27.299Z,12.30
2023-01-12T04:04:53.767Z,14.80
2023-01-12T04:07:20.337Z,15.73
2023-01-12T04:09:46.797Z,9.95
2023-01-12T04:12:13.417Z,14.25
2023-01-12T04:14:47.818Z,11.65
2023-01-12T04:17:15.070Z,21.85
2023-01-12T04:19:41.761Z,12.05
2023-01-12T04:22:28.668Z,15.98
2023-01-12T04:24:55.165Z,11.25
2023-01-12T04:27:21.581Z,11.35
2023-01-12T04:29:48.074Z,19.17
2023-01-12T04:32:14.558Z,14.00
2023-01-12T04:34:41.033Z,16.73
2023-01-12T04:37:07.485Z,12.60
2023-01-12T04:39:34.027Z,9.07
2023-01-12T04:42:00.562Z,14.18
2023-01-12T04:44:27.019Z,16.02
2023-01-12T04:46:53.961Z,10.77
2023-01-12T04:49:20.433Z,12.40
2023-01-12T04:51:46.893Z,10.10
2023-01-12T04:54:13.507Z,9.07
2023-01-12T04:56:39.954Z,14.43
2023-01-12T04:59:08.734Z,13.52
2023-01-12T05:01:36.602Z,13.10
2023-01-12T05:04:03.317Z,7.43
2023-01-12T05:06:29.812Z,11.02
2023-01-12T05:09:14.728Z,13.57
2023-01-12T05:11:41.281Z,10.13
2023-01-12T05:14:07.729Z,10.43
2023-01-12T05:16:34.221Z,11.57
2023-01-12T05:19:00.702Z,8.63
2023-01-12T05:21:27.150Z,9.18
2023-01-12T05:23:53.631Z,10.68
2023-01-12T05:26:20.802Z,14.18
2023-01-12T05:28:49.692Z,9.40
2023-01-12T05:31:16.691Z,11.90
2023-01-12T05:33:43.438Z,12.75
2023-01-12T05:36:13.054Z,14.98
2023-01-12T05:38:40.111Z,8.48
2023-01-12T05:41:07.322Z,9.27
2023-01-12T05:43:52.973Z,11.25
2023-01-12T05:46:29.210Z,11.30
2023-01-12T05:48:56.995Z,10.88
2023-01-12T05:51:25.343Z,9.70
2023-01-12T05:53:51.837Z,9.20
2023-01-12T05:56:20.824Z,11.25
2023-01-12T05:58:55.129Z,12.38
2023-01-12T06:01:22.260Z,13.30
2023-01-12T06:03:50.658Z,9.93
2023-01-12T06:06:18.836Z,11.82
2023-01-12T06:08:46.118Z,11.57
2023-01-12T06:11:32.711Z,11.55
2023-01-12T06:14:00.811Z,11.35
2023-01-12T06:16:28.455Z,14.98
2023-01-12T06:18:55.538Z,10.23
2023-01-12T06:21:22.603Z,12.75
2023-01-12T06:23:49.136Z,12.00
2023-01-12T06:26:15.859Z,13.07
2023-01-12T06:28:42.932Z,11.00
2023-01-12T06:31:12.109Z,9.23
2023-01-12T06:33:39.036Z,11.10
2023-01-12T06:36:06.285Z,13.10
2023-01-12T06:38:34.233Z,10.63
2023-01-12T06:41:29.400Z,15.05
2023-01-12T06:43:56.530Z,16.80
2023-01-12T06:46:23.318Z,15.27
2023-01-12T06:48:49.852Z,14.10
2023-01-12T06:51:16.365Z,13.40
2023-01-12T06:53:42.808Z,9.35
2023-01-12T06:56:09.245Z,10.68
2023-01-12T06:58:36.472Z,9.18
2023-01-12T07:01:04.260Z,12.32
2023-01-12T07:03:30.751Z,6.88
2023-01-12T07:06:00.986Z,12.57
2023-01-12T07:08:27.718Z,9.90
2023-01-12T07:10:54.503Z,13.60
2023-01-12T07:13:21.900Z,11.80
2023-01-12T07:15:48.521Z,11.20
2023-01-12T07:18:14.995Z,11.57
2023-01-12T07:20:41.426Z,10.68
2023-01-12T07:23:07.933Z,12.55
2023-01-12T07:25:34.354Z,10.57
2023-01-12T07:28:00.867Z,14.50
2023-01-12T07:30:28.019Z,11.05
2023-01-12T07:32:54.771Z,10.30
2023-01-12T07:35:21.742Z,7.72
2023-01-12T07:37:53.849Z,10.80
2023-01-12T07:40:20.701Z,11.18
2023-01-12T07:42:47.351Z,10.63
2023-01-12T07:45:13.849Z,9.88
2023-01-12T07:47:40.332Z,8.50
2023-01-12T07:50:07.208Z,8.73
2023-01-12T07:52:33.803Z,9.55
2023-01-12T07:55:00.311Z,8.77
2023-01-12T07:57:26.810Z,9.25
2023-01-12T07:59:53.280Z,9.20
2023-01-12T08:02:19.839Z,12.32
2023-01-12T08:04:47.126Z,8.05
2023-01-12T08:07:15.369Z,9.30
2023-01-12T08:09:41.935Z,10.73
2023-01-12T08:12:08.502Z,7.47
2023-01-12T08:14:40.858Z,7.03
2023-01-12T08:17:16.522Z,7.68
2023-01-12T08:19:54.082Z,9.48
2023-01-12T08:22:25.564Z,5.85
2023-01-12T08:24:58.210Z,6.25
2023-01-12T08:27:27.952Z,8.95
2023-01-12T08:29:58.492Z,7.13
2023-01-12T08:32:28.112Z,6.85
2023-01-12T08:34:59.425Z,4.70
2023-01-12T08:37:29.019Z,8.73
2023-01-12T08:39:55.848Z,7.28
2023-01-12T08:42:26.389Z,6.28
2023-01-12T08:44:54.735Z,10.73
2023-01-12T08:47:26.945Z,7.13
2023-01-12T08:49:54.399Z,6.85
2023-01-12T08:52:21.357Z,6.72
2023-01-12T08:54:48.358Z,5.55
2023-01-12T08:57:16.244Z,6.55
2023-01-12T08:59:43.326Z,6.63
2023-01-12T09:02:14.112Z,5.50
2023-01-12T09:04:41.579Z,5.03
2023-01-12T09:07:09.334Z,6.50
2023-01-12T09:09:36.545Z,5.47
2023-01-12T09:12:03.606Z,4.55
2023-01-12T09:14:30.043Z,4.50
2023-01-12T09:16:59.492Z,4.93
2023-01-12T09:19:26.000Z,4.70
2023-01-12T09:21:52.449Z,5.00
2023-01-12T09:24:18.981Z,6.82
2023-01-12T09:26:46.418Z,3.42
2023-01-12T09:29:14.391Z,5.30
2023-01-12T09:31:43.260Z,6.00
2023-01-12T09:34:10.549Z,4.57
2023-01-12T09:36:39.193Z,7.00
2023-01-12T09:39:09.920Z,5.30
2023-01-12T09:42:14.269Z,4.05
2023-01-12T09:45:08.359Z,6.10
2023-01-12T09:47:56.727Z,7.60
2023-01-12T09:50:36.900Z,7.07
2023-01-12T09:53:10.708Z,5.70
2023-01-12T09:56:09.615Z,4.97
2023-01-12T09:59:16.538Z,5.78
2023-01-12T10:01:44.812Z,6.97
2023-01-12T10:04:12.370Z,4.72
2023-01-12T10:06:39.422Z,5.22
2023-01-12T10:09:18.059Z,5.07
2023-01-12T10:11:52.205Z,5.65
2023-01-12T10:14:45.149Z,6.07
2023-01-12T10:17:35.847Z,5.30
2023-01-12T10:20:08.607Z,5.55
2023-01-12T10:23:06.371Z,6.53
2023-01-12T10:25:38.916Z,5.53
2023-01-12T10:28:17.379Z,3.87
2023-01-12T10:30:44.944Z,5.68
2023-01-12T10:33:33.140Z,5.60
2023-01-12T10:36:12.830Z,5.20
2023-01-12T10:38:52.575Z,6.20
2023-01-12T10:41:21.165Z,5.95
2023-01-12T10:43:59.921Z,7.40
2023-01-12T10:46:29.660Z,3.63
2023-01-12T10:49:22.542Z,5.13
2023-01-12T10:51:56.883Z,3.58
2023-01-12T10:54:31.420Z,7.55
2023-01-12T10:57:04.571Z,5.05
2023-01-12T10:59:33.756Z,10.13
2023-01-12T11:02:09.420Z,5.47
2023-01-12T11:04:40.892Z,3.38
2023-01-12T11:07:11.527Z,7.35
2023-01-12T11:09:38.846Z,6.07
2023-01-12T11:12:20.740Z,5.15
2023-01-12T11:15:11.366Z,5.75
2023-01-12T11:17:56.851Z,4.03
2023-01-12T11:21:08.100Z,3.70
2023-01-12T11:23:54.987Z,4.30
2023-01-12T11:26:27.384Z,3.88
2023-01-12T11:28:59.493Z,2.28
2023-01-12T11:31:31.357Z,3.53
2023-01-12T11:34:17.327Z,3.05
2023-01-12T11:36:47.748Z,7.70
2023-01-12T11:39:19.384Z,5.43
2023-01-12T11:42:19.368Z,4.30
2023-01-12T11:45:01.393Z,3.13
2023-01-12T11:47:32.087Z,5.53
2023-01-12T11:50:27.665Z,4.55
2023-01-12T11:52:56.442Z,5.40
2023-01-12T11:55:42.185Z,7.15
2023-01-12T11:58:19.866Z,2.70
2023-01-12T12:01:14.947Z,3.90
2023-01-12T12:03:50.048Z,3.35
2023-01-12T12:06:31.383Z,5.00
2023-01-12T12:09:13.762Z,3.50
2023-01-12T12:11:50.948Z,4.47
2023-01-12T12:14:59.647Z,4.45
2023-01-12T12:17:44.930Z,3.83
2023-01-12T12:20:43.324Z,5.95
2023-01-12T12:23:34.732Z,4.35
2023-01-12T12:26:19.361Z,4.88
2023-01-12T12:29:02.332Z,4.15
2023-01-12T12:31:41.148Z,3.28
2023-01-12T12:34:34.123Z,3.13
2023-01-12T12:37:23.632Z,3.85
2023-01-12T12:39:57.225Z,3.17
2023-01-12T12:42:57.712Z,5.75
2023-01-12T12:45:39.613Z,3.92
2023-01-12T12:48:34.109Z,3.63
2023-01-12T12:51:06.841Z,4.45
2023-01-12T12:53:45.466Z,5.13
2023-01-12T12:56:15.980Z,4.43
2023-01-12T12:58:49.641Z,4.07
2023-01-12T13:01:25.502Z,3.55
2023-01-12T13:03:59.059Z,2.75
2023-01-12T13:06:32.664Z,3.60
2023-01-12T13:09:10.402Z,3.45
2023-01-12T13:12:06.183Z,6.00
2023-01-12T13:14:37.732Z,2.75
2023-01-12T13:17:24.093Z,4.95
2023-01-12T13:20:24.093Z,3.85
2023-01-12T13:22:52.125Z,1.88
2023-01-12T13:25:23.651Z,3.97
2023-01-12T13:28:00.066Z,6.68
2023-01-12T13:30:26.474Z,4.90
2023-01-12T13:32:52.888Z,4.65
2023-01-12T13:35:34.309Z,2.78
2023-01-12T13:38:19.995Z,4.68
2023-01-12T13:40:55.575Z,2.50
2023-01-12T13:43:34.276Z,3.33
2023-01-12T13:46:12.630Z,3.10
2023-01-12T13:48:44.425Z,2.78
2023-01-12T13:51:15.516Z,2.80
2023-01-12T13:53:42.576Z,4.55
2023-01-12T13:56:19.648Z,3.42
2023-01-12T13:58:46.536Z,4.65
2023-01-12T14:01:31.825Z,2.95
2023-01-12T14:04:20.280Z,3.03
2023-01-12T14:07:01.526Z,2.88
2023-01-12T14:09:41.671Z,2.42
2023-01-12T14:12:25.216Z,3.88
2023-01-12T14:15:46.454Z,2.75
2023-01-12T14:18:17.846Z,2.05
2023-01-12T14:20:47.471Z,3.28
2023-01-12T14:23:21.643Z,2.13
2023-01-12T14:26:03.417Z,4.28
2023-01-12T14:28:30.747Z,2.20
2023-01-12T14:30:58.044Z,3.75
2023-01-12T14:33:31.528Z,2.17
2023-01-12T14:38:29.912Z,3.25
2023-01-12T14:41:04.042Z,1.65
2023-01-12T14:43:51.819Z,3.05
2023-01-12T14:46:26.392Z,1.60
2023-01-12T14:49:01.299Z,2.05
2023-01-12T14:51:39.011Z,5.28
2023-01-12T14:54:08.487Z,3.03
2023-01-12T14:56:42.539Z,3.60
2023-01-12T14:59:20.692Z,3.85
2023-01-12T15:01:47.227Z,3.05
2023-01-12T15:04:25.321Z,2.55
2023-01-12T15:07:06.414Z,4.40
2023-01-12T15:09:36.899Z,3.38
2023-01-12T15:12:39.079Z,3.45
2023-01-12T15:15:22.616Z,2.90
2023-01-12T15:18:11.744Z,3.45
2023-01-12T15:20:59.849Z,4.07
2023-01-12T15:23:48.919Z,2.72
2023-01-12T15:26:15.480Z,1.70
2023-01-12T15:28:42.547Z,3.22
2023-01-12T15:31:17.259Z,2.65
2023-01-12T15:33:43.972Z,3.72
2023-01-12T15:36:11.556Z,3.45
2023-01-12T15:38:38.013Z,3.45
2023-01-12T15:41:05.044Z,3.70
2023-01-12T15:43:31.677Z,2.03
2023-01-12T15:45:58.221Z,3.10
2023-01-12T15:48:24.791Z,2.92
2023-01-12T15:50:51.258Z,2.00
2023-01-12T15:53:22.857Z,3.83
2023-01-12T15:55:49.541Z,2.55
2023-01-12T15:58:16.893Z,4.55
2023-01-12T16:00:45.363Z,3.88
2023-01-12T16:03:28.886Z,3.22
2023-01-12T16:05:58.741Z,3.80
2023-01-12T16:08:25.207Z,4.20
2023-01-12T16:11:09.864Z,3.03
2023-01-12T16:13:36.288Z,3.35
2023-01-12T16:16:03.177Z,2.47
2023-01-12T16:18:29.953Z,2.30
2023-01-12T16:21:00.395Z,5.75
2023-01-12T16:23:27.543Z,4.20
2023-01-12T16:26:01.454Z,3.05
2023-01-12T16:28:28.524Z,3.95
2023-01-12T16:30:55.363Z,4.70
2023-01-12T16:33:22.389Z,2.80
2023-01-12T16:35:49.168Z,2.67
2023-01-12T16:38:17.000Z,3.28
2023-01-12T16:40:45.052Z,3.10
2023-01-12T16:43:11.792Z,2.83
2023-01-12T16:45:42.380Z,4.57
2023-01-12T16:48:08.989Z,3.25
2023-01-12T16:50:40.476Z,3.70
2023-01-12T16:53:08.311Z,3.97
2023-01-12T16:55:37.216Z,3.55
2023-01-12T16:58:05.715Z,3.80
2023-01-12T17:00:33.340Z,4.28
2023-01-12T17:03:02.471Z,1.88
2023-01-12T17:05:30.148Z,5.80
2023-01-12T17:07:57.258Z,4.95
2023-01-12T17:10:24.275Z,3.30
2023-01-12T17:12:54.664Z,4.82
2023-01-12T17:15:25.891Z,5.05
2023-01-12T17:17:53.196Z,4.03
2023-01-12T17:20:19.998Z,4.35
2023-01-12T17:22:47.955Z,6.10
2023-01-12T17:25:15.748Z,3.97
2023-01-12T17:27:42.505Z,3.33
2023-01-12T17:30:10.145Z,8.30
2023-01-12T17:32:36.841Z,4.32
2023-01-12T17:35:05.172Z,5.50
2023-01-12T17:37:31.636Z,5.20
2023-01-12T17:39:58.130Z,5.72
2023-01-12T17:42:43.178Z,2.30
2023-01-12T17:45:10.017Z,4.00
2023-01-12T17:47:36.456Z,3.78
2023-01-12T17:50:02.969Z,3.97
2023-01-12T17:52:29.507Z,7.78
2023-01-12T17:54:55.975Z,4.82
2023-01-12T17:57:22.715Z,3.35
2023-01-12T17:59:49.881Z,5.35
2023-01-12T18:02:18.043Z,4.50
2023-01-12T18:04:44.534Z,4.03
2023-01-12T18:07:11.341Z,3.90
2023-01-12T18:09:37.876Z,5.05
2023-01-12T18:12:05.114Z,5.25
2023-01-12T18:14:31.647Z,5.35
2023-01-12T18:16:58.189Z,3.90
2023-01-12T18:19:24.710Z,5.07
2023-01-12T18:21:51.107Z,3.25
2023-01-12T18:24:17.696Z,3.47
2023-01-12T18:26:44.402Z,3.20
2023-01-12T18:29:10.943Z,5.72
2023-01-12T18:31:37.591Z,3.15
2023-01-12T18:34:05.553Z,3.42
2023-01-12T18:36:37.738Z,4.07
2023-01-12T18:39:05.737Z,5.18
2023-01-12T18:41:51.124Z,6.18
2023-01-12T18:44:17.600Z,7.95
2023-01-12T18:47:02.986Z,5.13
2023-01-12T18:49:33.529Z,6.05
2023-01-12T18:52:19.959Z,2.75
2023-01-12T18:54:53.159Z,3.00
2023-01-12T18:57:22.973Z,4.63
2023-01-12T18:59:53.228Z,3.35
2023-01-12T19:02:20.749Z,3.13
2023-01-12T19:04:51.571Z,2.58
2023-01-12T19:07:20.763Z,2.42
2023-01-12T19:09:47.190Z,4.15
2023-01-12T19:12:13.628Z,4.07
2023-01-12T19:14:58.446Z,2.63
2023-01-12T19:17:27.610Z,5.38
2023-01-12T19:19:54.890Z,4.18
2023-01-12T19:22:40.100Z,4.25
2023-01-12T19:25:25.560Z,6.28
2023-01-12T19:28:10.749Z,4.15
2023-01-12T19:30:38.227Z,3.95
2023-01-12T19:33:14.467Z,3.53
2023-01-12T19:35:42.386Z,3.58
2023-01-12T19:38:09.447Z,4.72
2023-01-12T19:40:53.705Z,3.70
2023-01-12T19:43:25.909Z,3.20
2023-01-12T19:45:59.246Z,4.07
2023-01-12T19:48:26.602Z,2.50
2023-01-12T19:50:54.425Z,6.00
2023-01-12T19:53:27.990Z,3.15
2023-01-12T19:55:54.502Z,3.55
2023-01-12T19:58:22.059Z,4.30
2023-01-12T20:00:49.751Z,2.78
2023-01-12T20:03:18.805Z,3.22
2023-01-12T20:05:47.431Z,3.25
2023-01-12T20:08:17.060Z,3.10
2023-01-12T20:10:43.943Z,3.60
2023-01-12T20:13:13.090Z,3.17
2023-01-12T20:15:41.331Z,3.70
2023-01-12T20:18:08.952Z,2.08
2023-01-12T20:20:35.603Z,3.70
2023-01-12T20:23:02.073Z,4.18
2023-01-12T20:25:28.629Z,5.72
2023-01-12T20:27:55.421Z,4.55
2023-01-12T20:30:36.804Z,2.92
2023-01-12T20:33:03.775Z,3.78
2023-01-12T20:35:30.207Z,3.53
2023-01-12T20:37:56.700Z,4.72
2023-01-12T20:40:23.212Z,3.63
2023-01-12T20:42:49.658Z,4.45
2023-01-12T20:45:16.219Z,4.68
2023-01-12T20:47:42.811Z,4.32
2023-01-12T20:50:13.475Z,4.55
2023-01-12T20:52:40.480Z,5.45
2023-01-12T20:55:07.616Z,3.50
2023-01-12T20:57:35.268Z,5.47
2023-01-12T21:00:02.143Z,3.95
2023-01-12T21:02:28.613Z,3.47
2023-01-12T21:04:55.067Z,3.10
2023-01-12T21:07:21.884Z,4.57
2023-01-12T21:09:48.755Z,2.58
2023-01-12T21:12:15.304Z,4.28
2023-01-12T21:14:41.904Z,4.75
2023-01-12T21:17:08.400Z,3.90
2023-01-12T21:19:35.082Z,3.53
2023-01-12T21:22:01.626Z,3.42
2023-01-12T21:24:28.436Z,3.40
2023-01-12T21:26:55.879Z,5.25
2023-01-12T21:29:23.411Z,3.03
2023-01-12T21:31:49.939Z,2.17
2023-01-12T21:34:16.474Z,2.50
2023-01-12T21:36:42.898Z,1.63
2023-01-12T21:39:09.444Z,1.85
2023-01-12T21:41:56.191Z,2.15
2023-01-12T21:44:22.943Z,4.22
2023-01-12T21:46:49.380Z,2.67
2023-01-12T21:49:16.728Z,2.20
2023-01-12T21:51:43.250Z,2.67
2023-01-12T21:54:09.769Z,1.98
2023-01-12T21:56:36.366Z,3.10
2023-01-12T21:59:02.989Z,2.70
2023-01-12T22:01:29.497Z,4.40
2023-01-12T22:03:57.133Z,2.67
2023-01-12T22:06:23.595Z,4.68
2023-01-12T22:08:50.167Z,2.70
2023-01-12T22:11:17.943Z,3.45
2023-01-12T22:13:44.997Z,3.47
2023-01-12T22:16:13.858Z,2.72
2023-01-12T22:18:44.460Z,3.83
2023-01-12T22:21:10.964Z,3.95
2023-01-12T22:23:37.892Z,2.60
2023-01-12T22:26:06.832Z,2.95
2023-01-12T22:28:34.368Z,2.75
2023-01-12T22:31:11.705Z,2.35
2023-01-12T22:33:38.828Z,2.42
2023-01-12T22:36:06.878Z,4.45
2023-01-12T22:38:33.846Z,4.55
2023-01-12T22:41:07.909Z,3.67
2023-01-12T22:43:40.453Z,4.18
2023-01-12T22:46:21.892Z,2.80
2023-01-12T22:48:50.071Z,3.15
2023-01-12T22:51:17.879Z,3.22
2023-01-12T22:53:44.297Z,3.28
2023-01-12T22:56:11.847Z,2.80
2023-01-12T22:58:39.593Z,1.38
2023-01-12T23:01:08.856Z,3.05
2023-01-12T23:03:36.778Z,2.72
2023-01-12T23:06:04.330Z,6.03
2023-01-12T23:08:30.947Z,2.25
2023-01-12T23:11:13.483Z,3.30
2023-01-12T23:13:41.389Z,2.17
2023-01-12T23:16:09.840Z,2.25
2023-01-12T23:18:38.934Z,1.35
2023-01-12T23:21:15.504Z,2.40
2023-01-12T23:23:45.303Z,1.13
2023-01-12T23:26:15.141Z,1.08
2023-01-12T23:28:46.527Z,1.48
2023-01-12T23:31:16.944Z,2.15
2023-01-12T23:36:16.775Z,1.83
2023-01-12T23:38:43.681Z,0.50
2023-01-12T23:41:15.837Z,1.15
2023-01-12T23:43:43.281Z,1.38
2023-01-12T23:46:11.136Z,2.05
2023-01-12T23:48:38.192Z,1.80
2023-01-12T23:51:05.164Z,1.90
2023-01-12T23:53:32.412Z,2.05
2023-01-12T23:56:05.683Z,2.20
2023-01-12T23:58:33.110Z,2.00
